sensor_id;sensor_type;location;lat;lon;timestamp;P1;durP1;ratioP1;P2;durP2;ratioP2
16822;SDS011;8528;49.976;11.858;2023-03-03T00:01:52;24.83;;;13.27;;
16822;SDS011;8528;49.976;11.858;2023-03-03T00:04:19;24.27;;;13.17;;
16822;SDS011;8528;49.976;11.858;2023-03-03T00:06:46;23.47;;;13.30;;
16822;SDS011;8528;49.976;11.858;2023-03-03T00:09:13;24.93;;;12.57;;
16822;SDS011;8528;49.976;11.858;2023-03-03T00:11:40;22.13;;;12.13;;
16822;SDS011;8528;49.976;11.858;2023-03-03T00:14:17;22.37;;;12.30;;
16822;SDS011;8528;49.976;11.858;2023-03-03T00:16:51;19.63;;;11.77;;
16822;SDS011;8528;49.976;11.858;2023-03-03T00:19:18;23.80;;;12.47;;
16822;SDS011;8528;49.976;11.858;2023-03-03T00:21:46;21.93;;;11.33;;
16822;SDS011;8528;49.976;11.858;2023-03-03T00:24:24;25.23;;;12.67;;
16822;SDS011;8528;49.976;11.858;2023-03-03T00:27:09;23.43;;;11.70;;
16822;SDS011;8528;49.976;11.858;2023-03-03T00:29:47;16.10;;;10.50;;
16822;SDS011;8528;49.976;11.858;2023-03-03T00:32:22;22.13;;;11.80;;
16822;SDS011;8528;49.976;11.858;2023-03-03T00:34:53;19.67;;;11.27;;
16822;SDS011;8528;49.976;11.858;2023-03-03T00:37:32;18.27;;;11.20;;
16822;SDS011;8528;49.976;11.858;2023-03-03T00:42:45;22.53;;;11.67;;
16822;SDS011;8528;49.976;11.858;2023-03-03T00:45:21;23.17;;;12.10;;
16822;SDS011;8528;49.976;11.858;2023-03-03T00:47:54;23.07;;;11.63;;
16822;SDS011;8528;49.976;11.858;2023-03-03T00:53:01;21.10;;;11.33;;
16822;SDS011;8528;49.976;11.858;2023-03-03T00:55:42;24.00;;;11.73;;
16822;SDS011;8528;49.976;11.858;2023-03-03T00:58:09;23.00;;;12.00;;
16822;SDS011;8528;49.976;11.858;2023-03-03T01:00:37;21.07;;;10.80;;
16822;SDS011;8528;49.976;11.858;2023-03-03T01:03:06;17.57;;;10.57;;
16822;SDS011;8528;49.976;11.858;2023-03-03T01:05:35;23.50;;;12.07;;
16822;SDS011;8528;49.976;11.858;2023-03-03T01:08:02;20.23;;;11.20;;
16822;SDS011;8528;49.976;11.858;2023-03-03T01:10:51;17.03;;;10.63;;
16822;SDS011;8528;49.976;11.858;2023-03-03T01:13:27;25.03;;;12.00;;
16822;SDS011;8528;49.976;11.858;2023-03-03T01:15:57;24.00;;;10.77;;
16822;SDS011;8528;49.976;11.858;2023-03-03T01:18:24;25.87;;;12.53;;
16822;SDS011;8528;49.976;11.858;2023-03-03T01:20:52;19.73;;;12.13;;
16822;SDS011;8528;49.976;11.858;2023-03-03T01:23:19;22.63;;;12.47;;
16822;SDS011;8528;49.976;11.858;2023-03-03T01:25:46;22.73;;;11.63;;
16822;SDS011;8528;49.976;11.858;2023-03-03T01:28:12;24.27;;;11.97;;
16822;SDS011;8528;49.976;11.858;2023-03-03T01:30:39;19.80;;;10.73;;
16822;SDS011;8528;49.976;11.858;2023-03-03T01:33:06;19.60;;;10.80;;
16822;SDS011;8528;49.976;11.858;2023-03-03T01:35:33;21.20;;;11.30;;
16822;SDS011;8528;49.976;11.858;2023-03-03T01:38:01;20.43;;;11.60;;
16822;SDS011;8528;49.976;11.858;2023-03-03T01:40:29;17.17;;;10.40;;
16822;SDS011;8528;49.976;11.858;2023-03-03T01:42:59;21.50;;;10.00;;
16822;SDS011;8528;49.976;11.858;2023-03-03T01:45:27;17.67;;;9.50;;
16822;SDS011;8528;49.976;11.858;2023-03-03T01:50:30;18.13;;;10.07;;
16822;SDS011;8528;49.976;11.858;2023-03-03T01:52:58;17.53;;;9.57;;
16822;SDS011;8528;49.976;11.858;2023-03-03T01:55:29;17.77;;;9.47;;
16822;SDS011;8528;49.976;11.858;2023-03-03T01:58:01;16.73;;;9.03;;
16822;SDS011;8528;49.976;11.858;2023-03-03T02:00:33;17.23;;;9.53;;
16822;SDS011;8528;49.976;11.858;2023-03-03T02:03:03;20.20;;;10.50;;
16822;SDS011;8528;49.976;11.858;2023-03-03T02:05:31;17.07;;;10.03;;
16822;SDS011;8528;49.976;11.858;2023-03-03T02:08:00;18.67;;;9.17;;
16822;SDS011;8528;49.976;11.858;2023-03-03T02:10:27;19.80;;;10.47;;
16822;SDS011;8528;49.976;11.858;2023-03-03T02:12:55;19.30;;;11.07;;
16822;SDS011;8528;49.976;11.858;2023-03-03T02:15:25;21.40;;;10.97;;
16822;SDS011;8528;49.976;11.858;2023-03-03T02:18:03;17.67;;;9.10;;
16822;SDS011;8528;49.976;11.858;2023-03-03T02:26:08;21.80;;;10.57;;
16822;SDS011;8528;49.976;11.858;2023-03-03T02:28:37;23.03;;;10.73;;
16822;SDS011;8528;49.976;11.858;2023-03-03T02:31:06;19.60;;;9.73;;
16822;SDS011;8528;49.976;11.858;2023-03-03T02:33:39;19.57;;;10.07;;
16822;SDS011;8528;49.976;11.858;2023-03-03T02:36:11;17.73;;;9.97;;
16822;SDS011;8528;49.976;11.858;2023-03-03T02:38:44;16.27;;;10.03;;
16822;SDS011;8528;49.976;11.858;2023-03-03T02:46:17;20.73;;;10.47;;
16822;SDS011;8528;49.976;11.858;2023-03-03T02:48:44;22.27;;;10.33;;
16822;SDS011;8528;49.976;11.858;2023-03-03T02:51:11;22.67;;;11.00;;
16822;SDS011;8528;49.976;11.858;2023-03-03T02:53:38;19.07;;;9.40;;
16822;SDS011;8528;49.976;11.858;2023-03-03T02:56:06;19.53;;;10.30;;
16822;SDS011;8528;49.976;11.858;2023-03-03T02:58:35;18.47;;;9.90;;
16822;SDS011;8528;49.976;11.858;2023-03-03T03:01:03;19.63;;;10.77;;
16822;SDS011;8528;49.976;11.858;2023-03-03T03:03:30;16.37;;;9.73;;
16822;SDS011;8528;49.976;11.858;2023-03-03T03:05:57;16.63;;;9.80;;
16822;SDS011;8528;49.976;11.858;2023-03-03T03:08:24;18.03;;;9.93;;
16822;SDS011;8528;49.976;11.858;2023-03-03T03:10:51;18.43;;;11.00;;
16822;SDS011;8528;49.976;11.858;2023-03-03T03:13:17;20.30;;;10.00;;
16822;SDS011;8528;49.976;11.858;2023-03-03T03:15:45;20.17;;;9.80;;
16822;SDS011;8528;49.976;11.858;2023-03-03T03:18:12;17.27;;;9.53;;
16822;SDS011;8528;49.976;11.858;2023-03-03T03:20:39;20.67;;;10.37;;
16822;SDS011;8528;49.976;11.858;2023-03-03T03:23:07;20.83;;;11.03;;
16822;SDS011;8528;49.976;11.858;2023-03-03T03:25:34;18.00;;;10.03;;
16822;SDS011;8528;49.976;11.858;2023-03-03T03:28:07;17.63;;;9.53;;
16822;SDS011;8528;49.976;11.858;2023-03-03T03:30:35;19.27;;;10.20;;
16822;SDS011;8528;49.976;11.858;2023-03-03T03:33:01;17.60;;;9.70;;
16822;SDS011;8528;49.976;11.858;2023-03-03T03:35:28;17.53;;;9.23;;
16822;SDS011;8528;49.976;11.858;2023-03-03T03:37:55;16.57;;;9.33;;
16822;SDS011;8528;49.976;11.858;2023-03-03T03:40:22;18.73;;;9.27;;
16822;SDS011;8528;49.976;11.858;2023-03-03T03:42:50;22.30;;;10.43;;
16822;SDS011;8528;49.976;11.858;2023-03-03T03:45:17;20.23;;;9.17;;
16822;SDS011;8528;49.976;11.858;2023-03-03T03:47:44;20.10;;;10.17;;
16822;SDS011;8528;49.976;11.858;2023-03-03T03:50:11;21.60;;;10.27;;
16822;SDS011;8528;49.976;11.858;2023-03-03T03:52:39;17.90;;;9.93;;
16822;SDS011;8528;49.976;11.858;2023-03-03T03:55:06;16.40;;;9.57;;
16822;SDS011;8528;49.976;11.858;2023-03-03T03:57:33;18.10;;;9.33;;
16822;SDS011;8528;49.976;11.858;2023-03-03T04:00:00;23.13;;;11.60;;
16822;SDS011;8528;49.976;11.858;2023-03-03T04:02:27;17.63;;;9.80;;
16822;SDS011;8528;49.976;11.858;2023-03-03T04:04:53;22.37;;;10.43;;
16822;SDS011;8528;49.976;11.858;2023-03-03T04:07:20;18.17;;;10.30;;
16822;SDS011;8528;49.976;11.858;2023-03-03T04:09:47;20.17;;;10.20;;
16822;SDS011;8528;49.976;11.858;2023-03-03T04:12:14;15.43;;;9.43;;
16822;SDS011;8528;49.976;11.858;2023-03-03T04:14:41;20.03;;;10.80;;
16822;SDS011;8528;49.976;11.858;2023-03-03T04:17:08;16.90;;;9.37;;
16822;SDS011;8528;49.976;11.858;2023-03-03T04:19:43;19.53;;;10.33;;
16822;SDS011;8528;49.976;11.858;2023-03-03T04:22:10;22.80;;;10.50;;
16822;SDS011;8528;49.976;11.858;2023-03-03T04:24:39;18.93;;;10.53;;
16822;SDS011;8528;49.976;11.858;2023-03-03T04:27:06;24.03;;;11.47;;
16822;SDS011;8528;49.976;11.858;2023-03-03T04:29:34;23.73;;;11.70;;
16822;SDS011;8528;49.976;11.858;2023-03-03T04:32:01;21.87;;;11.27;;
16822;SDS011;8528;49.976;11.858;2023-03-03T04:34:28;23.70;;;10.77;;
16822;SDS011;8528;49.976;11.858;2023-03-03T04:36:55;21.20;;;11.63;;
16822;SDS011;8528;49.976;11.858;2023-03-03T04:39:22;23.17;;;11.60;;
16822;SDS011;8528;49.976;11.858;2023-03-03T04:41:48;23.83;;;12.20;;
16822;SDS011;8528;49.976;11.858;2023-03-03T04:44:15;26.80;;;13.47;;
16822;SDS011;8528;49.976;11.858;2023-03-03T04:46:42;28.10;;;12.90;;
16822;SDS011;8528;49.976;11.858;2023-03-03T04:49:09;30.00;;;14.37;;
16822;SDS011;8528;49.976;11.858;2023-03-03T04:51:37;34.90;;;14.00;;
16822;SDS011;8528;49.976;11.858;2023-03-03T04:54:04;36.53;;;15.93;;
16822;SDS011;8528;49.976;11.858;2023-03-03T04:56:31;24.33;;;12.10;;
16822;SDS011;8528;49.976;11.858;2023-03-03T04:58:58;17.20;;;9.70;;
16822;SDS011;8528;49.976;11.858;2023-03-03T05:01:25;19.17;;;9.70;;
16822;SDS011;8528;49.976;11.858;2023-03-03T05:03:52;18.73;;;10.17;;
16822;SDS011;8528;49.976;11.858;2023-03-03T05:06:18;19.17;;;10.33;;
16822;SDS011;8528;49.976;11.858;2023-03-03T05:08:45;19.77;;;10.27;;
16822;SDS011;8528;49.976;11.858;2023-03-03T05:11:12;23.57;;;11.97;;
16822;SDS011;8528;49.976;11.858;2023-03-03T05:13:39;23.23;;;11.63;;
16822;SDS011;8528;49.976;11.858;2023-03-03T05:16:06;25.00;;;11.57;;
16822;SDS011;8528;49.976;11.858;2023-03-03T05:18:33;21.70;;;11.13;;
16822;SDS011;8528;49.976;11.858;2023-03-03T05:21:00;23.27;;;12.10;;
16822;SDS011;8528;49.976;11.858;2023-03-03T05:23:27;24.60;;;11.83;;
16822;SDS011;8528;49.976;11.858;2023-03-03T05:25:54;21.40;;;11.40;;
16822;SDS011;8528;49.976;11.858;2023-03-03T05:28:21;25.57;;;12.87;;
16822;SDS011;8528;49.976;11.858;2023-03-03T05:30:48;23.57;;;12.20;;
16822;SDS011;8528;49.976;11.858;2023-03-03T05:33:15;24.60;;;11.33;;
16822;SDS011;8528;49.976;11.858;2023-03-03T05:35:43;27.77;;;13.40;;
16822;SDS011;8528;49.976;11.858;2023-03-03T05:38:10;23.63;;;12.73;;
16822;SDS011;8528;49.976;11.858;2023-03-03T05:40:37;27.70;;;15.20;;
16822;SDS011;8528;49.976;11.858;2023-03-03T05:43:04;30.70;;;14.40;;
16822;SDS011;8528;49.976;11.858;2023-03-03T05:45:32;28.30;;;15.07;;
16822;SDS011;8528;49.976;11.858;2023-03-03T05:48:00;26.07;;;13.97;;
16822;SDS011;8528;49.976;11.858;2023-03-03T05:50:28;30.57;;;13.83;;
16822;SDS011;8528;49.976;11.858;2023-03-03T05:52:55;28.53;;;14.60;;
16822;SDS011;8528;49.976;11.858;2023-03-03T05:55:22;29.63;;;13.67;;
16822;SDS011;8528;49.976;11.858;2023-03-03T05:57:49;26.43;;;13.23;;
16822;SDS011;8528;49.976;11.858;2023-03-03T06:00:16;26.53;;;14.10;;
16822;SDS011;8528;49.976;11.858;2023-03-03T06:02:43;24.57;;;12.90;;
16822;SDS011;8528;49.976;11.858;2023-03-03T06:05:10;26.70;;;12.83;;
16822;SDS011;8528;49.976;11.858;2023-03-03T06:07:37;23.93;;;12.87;;
16822;SDS011;8528;49.976;11.858;2023-03-03T06:10:04;168.93;;;52.03;;
16822;SDS011;8528;49.976;11.858;2023-03-03T06:12:32;47.20;;;18.50;;
16822;SDS011;8528;49.976;11.858;2023-03-03T06:14:59;36.93;;;16.63;;
16822;SDS011;8528;49.976;11.858;2023-03-03T06:17:26;35.50;;;15.17;;
16822;SDS011;8528;49.976;11.858;2023-03-03T06:19:52;33.50;;;14.07;;
16822;SDS011;8528;49.976;11.858;2023-03-03T06:22:19;32.93;;;15.27;;
16822;SDS011;8528;49.976;11.858;2023-03-03T06:24:46;30.47;;;14.60;;
16822;SDS011;8528;49.976;11.858;2023-03-03T06:27:13;33.07;;;16.50;;
16822;SDS011;8528;49.976;11.858;2023-03-03T06:29:39;32.50;;;16.97;;
16822;SDS011;8528;49.976;11.858;2023-03-03T06:32:06;30.47;;;14.67;;
16822;SDS011;8528;49.976;11.858;2023-03-03T06:34:33;39.23;;;16.97;;
16822;SDS011;8528;49.976;11.858;2023-03-03T06:37:00;29.30;;;14.13;;
16822;SDS011;8528;49.976;11.858;2023-03-03T06:39:27;28.67;;;12.33;;
16822;SDS011;8528;49.976;11.858;2023-03-03T06:41:54;26.77;;;14.03;;
16822;SDS011;8528;49.976;11.858;2023-03-03T06:44:21;33.33;;;15.77;;
16822;SDS011;8528;49.976;11.858;2023-03-03T06:46:47;30.37;;;15.33;;
16822;SDS011;8528;49.976;11.858;2023-03-03T06:49:14;37.80;;;17.27;;
16822;SDS011;8528;49.976;11.858;2023-03-03T06:51:41;31.57;;;14.63;;
16822;SDS011;8528;49.976;11.858;2023-03-03T06:54:10;27.47;;;14.73;;
16822;SDS011;8528;49.976;11.858;2023-03-03T06:56:41;29.70;;;14.07;;
16822;SDS011;8528;49.976;11.858;2023-03-03T06:59:14;32.63;;;15.47;;
16822;SDS011;8528;49.976;11.858;2023-03-03T07:01:41;33.07;;;15.83;;
16822;SDS011;8528;49.976;11.858;2023-03-03T07:04:31;32.23;;;15.70;;
16822;SDS011;8528;49.976;11.858;2023-03-03T07:06:59;32.97;;;15.57;;
16822;SDS011;8528;49.976;11.858;2023-03-03T07:09:36;27.83;;;13.77;;
16822;SDS011;8528;49.976;11.858;2023-03-03T07:12:09;27.27;;;13.27;;
16822;SDS011;8528;49.976;11.858;2023-03-03T07:14:44;29.50;;;15.07;;
16822;SDS011;8528;49.976;11.858;2023-03-03T07:17:14;30.33;;;15.33;;
16822;SDS011;8528;49.976;11.858;2023-03-03T07:19:44;32.03;;;16.07;;
16822;SDS011;8528;49.976;11.858;2023-03-03T07:24:45;31.93;;;15.27;;
16822;SDS011;8528;49.976;11.858;2023-03-03T07:27:26;32.90;;;15.03;;
16822;SDS011;8528;49.976;11.858;2023-03-03T07:30:00;29.13;;;14.63;;
16822;SDS011;8528;49.976;11.858;2023-03-03T07:32:39;29.80;;;15.23;;
16822;SDS011;8528;49.976;11.858;2023-03-03T07:40:48;29.10;;;15.53;;
16822;SDS011;8528;49.976;11.858;2023-03-03T07:44:03;26.57;;;13.87;;
16822;SDS011;8528;49.976;11.858;2023-03-03T07:46:33;26.67;;;14.17;;
16822;SDS011;8528;49.976;11.858;2023-03-03T07:49:15;25.07;;;13.77;;
16822;SDS011;8528;49.976;11.858;2023-03-03T07:52:01;24.03;;;13.70;;
16822;SDS011;8528;49.976;11.858;2023-03-03T07:54:50;24.93;;;13.20;;
16822;SDS011;8528;49.976;11.858;2023-03-03T07:57:34;26.90;;;13.50;;
16822;SDS011;8528;49.976;11.858;2023-03-03T08:05:30;23.17;;;12.63;;
16822;SDS011;8528;49.976;11.858;2023-03-03T08:10:39;23.73;;;12.83;;
16822;SDS011;8528;49.976;11.858;2023-03-03T08:13:14;24.77;;;13.17;;
16822;SDS011;8528;49.976;11.858;2023-03-03T08:15:54;24.87;;;12.70;;
16822;SDS011;8528;49.976;11.858;2023-03-03T08:21:10;20.53;;;11.17;;
16822;SDS011;8528;49.976;11.858;2023-03-03T08:23:39;21.00;;;12.27;;
16822;SDS011;8528;49.976;11.858;2023-03-03T08:26:06;21.23;;;12.70;;
16822;SDS011;8528;49.976;11.858;2023-03-03T08:28:33;22.17;;;13.03;;
16822;SDS011;8528;49.976;11.858;2023-03-03T08:30:59;17.23;;;11.40;;
16822;SDS011;8528;49.976;11.858;2023-03-03T08:33:45;15.57;;;10.37;;
16822;SDS011;8528;49.976;11.858;2023-03-03T08:36:12;17.90;;;12.80;;
16822;SDS011;8528;49.976;11.858;2023-03-03T08:38:39;17.27;;;12.17;;
16822;SDS011;8528;49.976;11.858;2023-03-03T08:41:06;16.73;;;11.83;;
16822;SDS011;8528;49.976;11.858;2023-03-03T08:43:33;14.97;;;11.83;;
16822;SDS011;8528;49.976;11.858;2023-03-03T08:46:01;14.40;;;11.83;;
16822;SDS011;8528;49.976;11.858;2023-03-03T08:48:31;15.97;;;12.73;;
16822;SDS011;8528;49.976;11.858;2023-03-03T08:50:58;13.40;;;11.63;;
16822;SDS011;8528;49.976;11.858;2023-03-03T08:53:26;13.93;;;12.43;;
16822;SDS011;8528;49.976;11.858;2023-03-03T08:55:53;13.07;;;11.60;;
16822;SDS011;8528;49.976;11.858;2023-03-03T08:58:20;13.90;;;11.70;;
16822;SDS011;8528;49.976;11.858;2023-03-03T09:00:59;14.00;;;11.70;;
16822;SDS011;8528;49.976;11.858;2023-03-03T09:03:26;14.48;;;12.98;;
16822;SDS011;8528;49.976;11.858;2023-03-03T09:05:53;11.38;;;10.35;;
16822;SDS011;8528;49.976;11.858;2023-03-03T09:08:21;13.63;;;12.23;;
16822;SDS011;8528;49.976;11.858;2023-03-03T09:10:48;11.63;;;10.43;;
16822;SDS011;8528;49.976;11.858;2023-03-03T09:13:16;12.00;;;10.70;;
16822;SDS011;8528;49.976;11.858;2023-03-03T09:15:44;16.27;;;12.10;;
16822;SDS011;8528;49.976;11.858;2023-03-03T09:18:13;14.73;;;13.23;;
16822;SDS011;8528;49.976;11.858;2023-03-03T09:20:41;11.95;;;10.77;;
16822;SDS011;8528;49.976;11.858;2023-03-03T09:23:20;11.82;;;10.68;;
16822;SDS011;8528;49.976;11.858;2023-03-03T09:26:14;12.73;;;11.50;;
16822;SDS011;8528;49.976;11.858;2023-03-03T09:28:43;10.65;;;9.57;;
16822;SDS011;8528;49.976;11.858;2023-03-03T09:31:35;14.85;;;11.20;;
16822;SDS011;8528;49.976;11.858;2023-03-03T09:34:39;13.50;;;12.13;;
16822;SDS011;8528;49.976;11.858;2023-03-03T09:37:11;12.55;;;10.55;;
16822;SDS011;8528;49.976;11.858;2023-03-03T09:39:40;11.57;;;10.43;;
16822;SDS011;8528;49.976;11.858;2023-03-03T09:45:07;10.32;;;9.32;;
16822;SDS011;8528;49.976;11.858;2023-03-03T09:55:58;15.73;;;12.70;;
16822;SDS011;8528;49.976;11.858;2023-03-03T10:04:15;12.25;;;10.95;;
16822;SDS011;8528;49.976;11.858;2023-03-03T10:07:22;14.05;;;11.45;;
16822;SDS011;8528;49.976;11.858;2023-03-03T10:09:55;16.05;;;11.43;;
16822;SDS011;8528;49.976;11.858;2023-03-03T10:21:15;14.45;;;10.95;;
16822;SDS011;8528;49.976;11.858;2023-03-03T10:27:04;16.55;;;10.27;;
16822;SDS011;8528;49.976;11.858;2023-03-03T10:43:49;9.95;;;8.85;;
16822;SDS011;8528;49.976;11.858;2023-03-03T10:46:47;10.30;;;8.98;;
16822;SDS011;8528;49.976;11.858;2023-03-03T10:55:20;9.63;;;8.60;;
16822;SDS011;8528;49.976;11.858;2023-03-03T11:00:51;10.07;;;8.98;;
16822;SDS011;8528;49.976;11.858;2023-03-03T11:06:19;8.13;;;7.32;;
16822;SDS011;8528;49.976;11.858;2023-03-03T11:11:51;9.80;;;8.90;;
16822;SDS011;8528;49.976;11.858;2023-03-03T11:20:38;9.68;;;8.10;;
16822;SDS011;8528;49.976;11.858;2023-03-03T11:38:44;8.50;;;7.70;;
16822;SDS011;8528;49.976;11.858;2023-03-03T11:41:30;8.73;;;7.93;;
16822;SDS011;8528;49.976;11.858;2023-03-03T11:47:32;8.57;;;7.70;;
16822;SDS011;8528;49.976;11.858;2023-03-03T11:50:15;8.23;;;7.35;;
16822;SDS011;8528;49.976;11.858;2023-03-03T11:53:00;8.18;;;7.38;;
16822;SDS011;8528;49.976;11.858;2023-03-03T11:55:55;15.43;;;8.63;;
16822;SDS011;8528;49.976;11.858;2023-03-03T11:58:30;8.18;;;7.38;;
16822;SDS011;8528;49.976;11.858;2023-03-03T12:01:14;16.55;;;7.82;;
16822;SDS011;8528;49.976;11.858;2023-03-03T12:04:05;7.45;;;6.75;;
16822;SDS011;8528;49.976;11.858;2023-03-03T12:12:37;7.28;;;6.53;;
16822;SDS011;8528;49.976;11.858;2023-03-03T12:15:16;8.07;;;7.28;;
16822;SDS011;8528;49.976;11.858;2023-03-03T12:26:24;9.23;;;8.35;;
16822;SDS011;8528;49.976;11.858;2023-03-03T12:29:13;15.60;;;8.73;;
16822;SDS011;8528;49.976;11.858;2023-03-03T12:37:18;8.13;;;7.32;;
16822;SDS011;8528;49.976;11.858;2023-03-03T12:40:08;7.45;;;6.65;;
16822;SDS011;8528;49.976;11.858;2023-03-03T12:42:42;8.65;;;7.03;;
16822;SDS011;8528;49.976;11.858;2023-03-03T12:50:38;7.82;;;7.03;;
16822;SDS011;8528;49.976;11.858;2023-03-03T12:53:39;7.75;;;6.70;;
16822;SDS011;8528;49.976;11.858;2023-03-03T12:56:23;8.13;;;6.53;;
16822;SDS011;8528;49.976;11.858;2023-03-03T13:04:46;8.00;;;6.27;;
16822;SDS011;8528;49.976;11.858;2023-03-03T13:07:25;7.63;;;6.13;;
16822;SDS011;8528;49.976;11.858;2023-03-03T13:10:10;8.20;;;5.63;;
16822;SDS011;8528;49.976;11.858;2023-03-03T13:12:44;6.50;;;5.83;;
16822;SDS011;8528;49.976;11.858;2023-03-03T13:15:38;6.70;;;5.47;;
16822;SDS011;8528;49.976;11.858;2023-03-03T13:18:27;8.03;;;6.00;;
16822;SDS011;8528;49.976;11.858;2023-03-03T13:27:39;7.10;;;5.67;;
16822;SDS011;8528;49.976;11.858;2023-03-03T13:30:13;8.10;;;6.90;;
16822;SDS011;8528;49.976;11.858;2023-03-03T13:38:32;9.73;;;5.73;;
16822;SDS011;8528;49.976;11.858;2023-03-03T13:41:04;7.47;;;4.80;;
16822;SDS011;8528;49.976;11.858;2023-03-03T13:43:45;6.93;;;5.17;;
16822;SDS011;8528;49.976;11.858;2023-03-03T13:46:39;7.77;;;5.27;;
16822;SDS011;8528;49.976;11.858;2023-03-03T13:52:02;7.20;;;5.40;;
16822;SDS011;8528;49.976;11.858;2023-03-03T13:54:43;8.57;;;5.43;;
16822;SDS011;8528;49.976;11.858;2023-03-03T13:57:30;6.80;;;4.80;;
16822;SDS011;8528;49.976;11.858;2023-03-03T14:00:22;10.93;;;5.77;;
16822;SDS011;8528;49.976;11.858;2023-03-03T14:06:03;7.90;;;4.83;;
16822;SDS011;8528;49.976;11.858;2023-03-03T14:11:29;7.40;;;5.53;;
16822;SDS011;8528;49.976;11.858;2023-03-03T14:14:19;11.00;;;4.83;;
16822;SDS011;8528;49.976;11.858;2023-03-03T14:16:56;5.13;;;4.13;;
16822;SDS011;8528;49.976;11.858;2023-03-03T14:27:51;6.60;;;4.30;;
16822;SDS011;8528;49.976;11.858;2023-03-03T14:35:34;5.70;;;3.70;;
16822;SDS011;8528;49.976;11.858;2023-03-03T14:43:41;6.63;;;4.80;;
16822;SDS011;8528;49.976;11.858;2023-03-03T14:48:56;8.33;;;4.70;;
16822;SDS011;8528;49.976;11.858;2023-03-03T14:51:25;7.67;;;4.80;;
16822;SDS011;8528;49.976;11.858;2023-03-03T14:53:59;7.50;;;4.97;;
16822;SDS011;8528;49.976;11.858;2023-03-03T14:59:23;9.17;;;5.03;;
16822;SDS011;8528;49.976;11.858;2023-03-03T15:01:56;13.07;;;6.27;;
16822;SDS011;8528;49.976;11.858;2023-03-03T15:04:42;10.43;;;5.83;;
16822;SDS011;8528;49.976;11.858;2023-03-03T15:07:19;9.60;;;5.50;;
16822;SDS011;8528;49.976;11.858;2023-03-03T15:10:01;10.00;;;5.67;;
16822;SDS011;8528;49.976;11.858;2023-03-03T15:17:56;13.80;;;6.67;;
16822;SDS011;8528;49.976;11.858;2023-03-03T15:26:06;10.80;;;6.13;;
16822;SDS011;8528;49.976;11.858;2023-03-03T15:42:36;10.40;;;6.33;;
16822;SDS011;8528;49.976;11.858;2023-03-03T15:47:47;12.27;;;6.67;;
16822;SDS011;8528;49.976;11.858;2023-03-03T15:53:51;11.17;;;6.33;;
16822;SDS011;8528;49.976;11.858;2023-03-03T16:02:38;13.97;;;7.00;;
16822;SDS011;8528;49.976;11.858;2023-03-03T16:05:15;13.80;;;7.50;;
16822;SDS011;8528;49.976;11.858;2023-03-03T16:11:21;12.43;;;7.10;;
16822;SDS011;8528;49.976;11.858;2023-03-03T16:16:59;14.60;;;7.83;;
16822;SDS011;8528;49.976;11.858;2023-03-03T16:22:13;17.07;;;9.13;;
16822;SDS011;8528;49.976;11.858;2023-03-03T16:25:17;14.40;;;8.50;;
16822;SDS011;8528;49.976;11.858;2023-03-03T16:27:57;12.43;;;8.43;;
16822;SDS011;8528;49.976;11.858;2023-03-03T16:30:51;21.37;;;10.93;;
16822;SDS011;8528;49.976;11.858;2023-03-03T16:33:38;16.90;;;10.27;;
16822;SDS011;8528;49.976;11.858;2023-03-03T16:36:33;17.93;;;9.30;;
16822;SDS011;8528;49.976;11.858;2023-03-03T16:42:26;17.47;;;8.87;;
16822;SDS011;8528;49.976;11.858;2023-03-03T16:50:35;18.07;;;8.67;;
16822;SDS011;8528;49.976;11.858;2023-03-03T16:56:27;15.77;;;8.90;;
16822;SDS011;8528;49.976;11.858;2023-03-03T17:05:16;27.13;;;11.27;;
16822;SDS011;8528;49.976;11.858;2023-03-03T17:07:57;21.03;;;10.83;;
16822;SDS011;8528;49.976;11.858;2023-03-03T17:10:36;19.87;;;9.80;;
16822;SDS011;8528;49.976;11.858;2023-03-03T17:21:20;21.20;;;10.10;;
16822;SDS011;8528;49.976;11.858;2023-03-03T17:26:36;18.73;;;9.10;;
16822;SDS011;8528;49.976;11.858;2023-03-03T17:32:16;18.70;;;9.70;;
16822;SDS011;8528;49.976;11.858;2023-03-03T17:40:02;23.43;;;11.50;;
16822;SDS011;8528;49.976;11.858;2023-03-03T17:45:09;18.67;;;10.57;;
16822;SDS011;8528;49.976;11.858;2023-03-03T17:48:03;21.43;;;10.93;;
16822;SDS011;8528;49.976;11.858;2023-03-03T17:54:08;21.63;;;11.13;;
16822;SDS011;8528;49.976;11.858;2023-03-03T17:56:35;18.40;;;9.67;;
16822;SDS011;8528;49.976;11.858;2023-03-03T18:02:37;16.20;;;9.23;;
16822;SDS011;8528;49.976;11.858;2023-03-03T18:05:08;18.57;;;9.90;;
16822;SDS011;8528;49.976;11.858;2023-03-03T18:24:52;25.83;;;13.33;;
16822;SDS011;8528;49.976;11.858;2023-03-03T18:27:12;30.13;;;13.43;;
16822;SDS011;8528;49.976;11.858;2023-03-03T18:35:26;31.33;;;14.93;;
16822;SDS011;8528;49.976;11.858;2023-03-03T18:40:52;23.20;;;11.30;;
16822;SDS011;8528;49.976;11.858;2023-03-03T18:49:05;26.73;;;13.10;;
16822;SDS011;8528;49.976;11.858;2023-03-03T18:54:21;27.80;;;14.07;;
16822;SDS011;8528;49.976;11.858;2023-03-03T19:04:46;25.57;;;12.90;;
16822;SDS011;8528;49.976;11.858;2023-03-03T19:07:26;24.30;;;11.27;;
16822;SDS011;8528;49.976;11.858;2023-03-03T19:09:55;25.77;;;12.77;;
16822;SDS011;8528;49.976;11.858;2023-03-03T19:12:42;21.73;;;10.07;;
16822;SDS011;8528;49.976;11.858;2023-03-03T19:18:12;21.67;;;11.53;;
16822;SDS011;8528;49.976;11.858;2023-03-03T19:20:40;21.30;;;10.53;;
16822;SDS011;8528;49.976;11.858;2023-03-03T19:23:14;25.30;;;11.77;;
16822;SDS011;8528;49.976;11.858;2023-03-03T19:26:13;26.50;;;13.37;;
16822;SDS011;8528;49.976;11.858;2023-03-03T19:29:10;27.43;;;14.93;;
16822;SDS011;8528;49.976;11.858;2023-03-03T19:31:43;27.90;;;15.00;;
16822;SDS011;8528;49.976;11.858;2023-03-03T19:34:49;26.17;;;13.30;;
16822;SDS011;8528;49.976;11.858;2023-03-03T19:42:41;24.83;;;11.30;;
16822;SDS011;8528;49.976;11.858;2023-03-03T19:48:05;22.27;;;11.37;;
16822;SDS011;8528;49.976;11.858;2023-03-03T19:53:50;25.73;;;12.80;;
16822;SDS011;8528;49.976;11.858;2023-03-03T20:07:13;21.10;;;10.50;;
16822;SDS011;8528;49.976;11.858;2023-03-03T20:18:17;25.77;;;11.70;;
16822;SDS011;8528;49.976;11.858;2023-03-03T20:21:20;24.23;;;10.83;;
16822;SDS011;8528;49.976;11.858;2023-03-03T20:26:55;18.47;;;10.07;;
16822;SDS011;8528;49.976;11.858;2023-03-03T20:35:01;19.03;;;9.07;;
16822;SDS011;8528;49.976;11.858;2023-03-03T20:40:25;17.77;;;9.00;;
16822;SDS011;8528;49.976;11.858;2023-03-03T20:45:46;17.83;;;9.00;;
16822;SDS011;8528;49.976;11.858;2023-03-03T21:02:26;20.67;;;9.93;;
16822;SDS011;8528;49.976;11.858;2023-03-03T21:05:17;20.90;;;11.00;;
16822;SDS011;8528;49.976;11.858;2023-03-03T21:07:49;25.60;;;11.93;;
16822;SDS011;8528;49.976;11.858;2023-03-03T21:10:23;19.30;;;10.43;;
16822;SDS011;8528;49.976;11.858;2023-03-03T21:12:53;20.67;;;9.87;;
16822;SDS011;8528;49.976;11.858;2023-03-03T21:15:28;20.90;;;10.03;;
16822;SDS011;8528;49.976;11.858;2023-03-03T21:17:57;20.67;;;9.50;;
16822;SDS011;8528;49.976;11.858;2023-03-03T21:20:29;19.53;;;10.67;;
16822;SDS011;8528;49.976;11.858;2023-03-03T21:22:58;22.00;;;9.97;;
16822;SDS011;8528;49.976;11.858;2023-03-03T21:28:13;23.17;;;9.20;;
16822;SDS011;8528;49.976;11.858;2023-03-03T21:36:05;16.53;;;8.77;;
16822;SDS011;8528;49.976;11.858;2023-03-03T21:38:35;22.73;;;9.63;;
16822;SDS011;8528;49.976;11.858;2023-03-03T21:41:04;19.43;;;9.83;;
16822;SDS011;8528;49.976;11.858;2023-03-03T21:43:32;21.73;;;9.57;;
16822;SDS011;8528;49.976;11.858;2023-03-03T21:46:01;21.47;;;9.17;;